sensor_id;sensor_type;location;lat;lon;timestamp;pressure;altitude;pressure_sealevel;temperature;humidity
40992;BME280;29633;49.168;9.848;2023-05-20T00:00:07;97007.38;;;18.39;58.42
40992;BME280;29633;49.168;9.848;2023-05-20T00:02:34;97007.38;;;18.39;58.46
40992;BME280;29633;49.168;9.848;2023-05-20T00:04:59;97003.78;;;18.40;58.52
40992;BME280;29633;49.168;9.848;2023-05-20T00:07:25;97001.97;;;18.40;58.51
40992;BME280;29633;49.168;9.848;2023-05-20T00:09:51;97003.59;;;18.41;58.64
40992;BME280;29633;49.168;9.848;2023-05-20T00:12:17;97001.31;;;18.38;58.62
40992;BME280;29633;49.168;9.848;2023-05-20T00:14:42;96999.69;;;18.37;58.52
40992;BME280;29633;49.168;9.848;2023-05-20T00:17:08;96998.06;;;18.36;58.72
40992;BME280;29633;49.168;9.848;2023-05-20T00:19:34;96994.75;;;18.34;58.75
40992;BME280;29633;49.168;9.848;2023-05-20T00:21:59;96997.38;;;18.34;58.57
40992;BME280;29633;49.168;9.848;2023-05-20T00:24:28;97000.00;;;18.34;58.79
40992;BME280;29633;49.168;9.848;2023-05-20T00:26:54;96996.41;;;18.35;58.81
40992;BME280;29633;49.168;9.848;2023-05-20T00:29:20;96988.38;;;18.37;58.96
40992;BME280;29633;49.168;9.848;2023-05-20T00:31:46;96990.00;;;18.38;58.65
40992;BME280;29633;49.168;9.848;2023-05-20T00:34:12;96997.06;;;18.37;58.56
40992;BME280;29633;49.168;9.848;2023-05-20T00:36:37;96991.97;;;18.36;58.64
40992;BME280;29633;49.168;9.848;2023-05-20T00:39:03;96996.41;;;18.35;58.79
40992;BME280;29633;49.168;9.848;2023-05-20T00:41:29;96991.81;;;18.37;58.70
40992;BME280;29633;49.168;9.848;2023-05-20T00:43:55;96995.25;;;18.38;58.95
40992;BME280;29633;49.168;9.848;2023-05-20T00:46:22;96992.47;;;18.39;58.94
40992;BME280;29633;49.168;9.848;2023-05-20T00:48:48;96995.91;;;18.40;58.75
40992;BME280;29633;49.168;9.848;2023-05-20T00:51:14;96993.94;;;18.42;58.79
40992;BME280;29633;49.168;9.848;2023-05-20T00:53:40;96993.94;;;18.42;58.88
40992;BME280;29633;49.168;9.848;2023-05-20T00:56:07;96988.03;;;18.40;58.80
40992;BME280;29633;49.168;9.848;2023-05-20T00:58:33;96985.22;;;18.41;58.77
40992;BME280;29633;49.168;9.848;2023-05-20T01:01:01;96990.47;;;18.41;59.01
40992;BME280;29633;49.168;9.848;2023-05-20T01:03:27;96985.91;;;18.43;58.95
40992;BME280;29633;49.168;9.848;2023-05-20T01:05:53;96986.72;;;18.44;58.79
40992;BME280;29633;49.168;9.848;2023-05-20T01:08:23;96979.47;;;18.46;59.05
40992;BME280;29633;49.168;9.848;2023-05-20T01:10:53;96987.22;;;18.47;58.79
40992;BME280;29633;49.168;9.848;2023-05-20T01:13:23;96973.25;;;18.47;59.09
40992;BME280;29633;49.168;9.848;2023-05-20T01:15:51;96969.16;;;18.44;59.03
40992;BME280;29633;49.168;9.848;2023-05-20T01:18:18;96966.69;;;18.43;59.25
40992;BME280;29633;49.168;9.848;2023-05-20T01:20:49;96972.78;;;18.43;59.29
40992;BME280;29633;49.168;9.848;2023-05-20T01:23:15;96963.09;;;18.44;59.06
40992;BME280;29633;49.168;9.848;2023-05-20T01:25:41;96965.72;;;18.44;59.19
40992;BME280;29633;49.168;9.848;2023-05-20T01:28:07;96963.09;;;18.44;59.05
40992;BME280;29633;49.168;9.848;2023-05-20T01:30:36;96966.53;;;18.44;59.22
40992;BME280;29633;49.168;9.848;2023-05-20T01:33:06;96958.66;;;18.44;59.27
40992;BME280;29633;49.168;9.848;2023-05-20T01:35:33;96965.72;;;18.44;59.30
40992;BME280;29633;49.168;9.848;2023-05-20T01:37:59;96968.16;;;18.45;59.04
40992;BME280;29633;49.168;9.848;2023-05-20T01:40:25;96959.31;;;18.46;59.09
40992;BME280;29633;49.168;9.848;2023-05-20T01:42:54;96968.00;;;18.47;59.44
40992;BME280;29633;49.168;9.848;2023-05-20T01:45:22;96958.47;;;18.46;59.23
40992;BME280;29633;49.168;9.848;2023-05-20T01:47:48;96951.78;;;18.43;59.42
40992;BME280;29633;49.168;9.848;2023-05-20T01:50:14;96961.59;;;18.41;59.13
40992;BME280;29633;49.168;9.848;2023-05-20T01:52:40;96959.16;;;18.40;59.50
40992;BME280;29633;49.168;9.848;2023-05-20T01:55:05;96953.25;;;18.38;59.48
40992;BME280;29633;49.168;9.848;2023-05-20T01:57:31;96947.50;;;18.34;59.31
40992;BME280;29633;49.168;9.848;2023-05-20T01:59:57;96952.94;;;18.33;59.21
40992;BME280;29633;49.168;9.848;2023-05-20T02:02:22;96950.13;;;18.34;59.31
40992;BME280;29633;49.168;9.848;2023-05-20T02:04:49;96939.00;;;18.32;59.48
40992;BME280;29633;49.168;9.848;2023-05-20T02:07:15;96943.28;;;18.33;59.22
40992;BME280;29633;49.168;9.848;2023-05-20T02:09:41;96940.97;;;18.30;59.51
40992;BME280;29633;49.168;9.848;2023-05-20T02:12:07;96946.53;;;18.27;59.42
40992;BME280;29633;49.168;9.848;2023-05-20T02:14:33;96943.91;;;18.27;59.38
40992;BME280;29633;49.168;9.848;2023-05-20T02:16:59;96944.94;;;18.26;59.57
40992;BME280;29633;49.168;9.848;2023-05-20T02:19:25;96943.28;;;18.25;59.53
40992;BME280;29633;49.168;9.848;2023-05-20T02:21:50;96951.78;;;18.27;59.48
40992;BME280;29633;49.168;9.848;2023-05-20T02:24:16;96944.25;;;18.24;59.34
40992;BME280;29633;49.168;9.848;2023-05-20T02:26:41;96938.03;;;18.25;59.63
40992;BME280;29633;49.168;9.848;2023-05-20T02:29:09;96936.56;;;18.23;59.52
40992;BME280;29633;49.168;9.848;2023-05-20T02:31:34;96945.25;;;18.23;59.73
40992;BME280;29633;49.168;9.848;2023-05-20T02:34:00;96945.25;;;18.23;59.58
40992;BME280;29633;49.168;9.848;2023-05-20T02:36:26;96943.63;;;18.22;59.52
40992;BME280;29633;49.168;9.848;2023-05-20T02:38:52;96941.81;;;18.23;59.68
40992;BME280;29633;49.168;9.848;2023-05-20T02:41:21;96938.38;;;18.22;59.28
40992;BME280;29633;49.168;9.848;2023-05-20T02:43:47;96944.75;;;18.19;59.73
40992;BME280;29633;49.168;9.848;2023-05-20T02:46:13;96943.13;;;18.18;59.72
40992;BME280;29633;49.168;9.848;2023-05-20T02:48:40;96941.63;;;18.16;59.82
40992;BME280;29633;49.168;9.848;2023-05-20T02:51:06;96950.31;;;18.16;59.56
40992;BME280;29633;49.168;9.848;2023-05-20T02:53:31;96950.31;;;18.16;59.59
40992;BME280;29633;49.168;9.848;2023-05-20T02:55:57;96948.72;;;18.15;59.68
40992;BME280;29633;49.168;9.848;2023-05-20T02:58:23;96952.13;;;18.16;59.69
40992;BME280;29633;49.168;9.848;2023-05-20T03:00:51;96954.94;;;18.14;59.83
40992;BME280;29633;49.168;9.848;2023-05-20T03:03:17;96952.47;;;18.13;59.82
40992;BME280;29633;49.168;9.848;2023-05-20T03:05:43;96950.03;;;18.11;59.74
40992;BME280;29633;49.168;9.848;2023-05-20T03:08:10;96946.56;;;18.11;59.97
40992;BME280;29633;49.168;9.848;2023-05-20T03:10:37;96944.94;;;18.10;59.57
40992;BME280;29633;49.168;9.848;2023-05-20T03:13:04;96942.78;;;18.05;59.87
40992;BME280;29633;49.168;9.848;2023-05-20T03:15:33;96945.25;;;18.07;59.98
40992;BME280;29633;49.168;9.848;2023-05-20T03:18:00;96936.75;;;18.05;59.85
40992;BME280;29633;49.168;9.848;2023-05-20T03:20:26;96946.44;;;18.04;59.85
40992;BME280;29633;49.168;9.848;2023-05-20T03:22:53;96945.75;;;18.02;60.05
40992;BME280;29633;49.168;9.848;2023-05-20T03:25:19;96943.31;;;18.01;59.97
40992;BME280;29633;49.168;9.848;2023-05-20T03:27:45;96933.78;;;18.00;59.90
40992;BME280;29633;49.168;9.848;2023-05-20T03:30:11;96952.00;;;18.01;60.16
40992;BME280;29633;49.168;9.848;2023-05-20T03:32:39;96952.00;;;18.01;60.22
40992;BME280;29633;49.168;9.848;2023-05-20T03:35:05;96953.97;;;17.99;60.24
40992;BME280;29633;49.168;9.848;2023-05-20T03:37:31;96949.69;;;17.98;59.92
40992;BME280;29633;49.168;9.848;2023-05-20T03:39:57;96945.25;;;17.99;60.13
40992;BME280;29633;49.168;9.848;2023-05-20T03:42:22;96945.44;;;17.97;60.15
40992;BME280;29633;49.168;9.848;2023-05-20T03:44:48;96945.44;;;17.97;60.26
40992;BME280;29633;49.168;9.848;2023-05-20T03:47:13;96942.16;;;17.95;60.10
40992;BME280;29633;49.168;9.848;2023-05-20T03:49:39;96942.97;;;17.96;60.08
40992;BME280;29633;49.168;9.848;2023-05-20T03:52:06;96942.34;;;17.94;60.19
40992;BME280;29633;49.168;9.848;2023-05-20T03:54:32;96939.72;;;17.94;60.04
40992;BME280;29633;49.168;9.848;2023-05-20T03:56:59;96935.59;;;17.91;60.31
40992;BME280;29633;49.168;9.848;2023-05-20T03:59:26;96940.00;;;17.91;60.12
40992;BME280;29633;49.168;9.848;2023-05-20T04:01:52;96949.72;;;17.90;60.27
40992;BME280;29633;49.168;9.848;2023-05-20T04:04:17;96943.63;;;17.90;60.16
40992;BME280;29633;49.168;9.848;2023-05-20T04:06:43;96947.25;;;17.89;60.41
40992;BME280;29633;49.168;9.848;2023-05-20T04:09:09;96949.22;;;17.87;60.42
40992;BME280;29633;49.168;9.848;2023-05-20T04:11:35;96952.63;;;17.87;60.37
40992;BME280;29633;49.168;9.848;2023-05-20T04:14:01;96947.56;;;17.86;60.44
40992;BME280;29633;49.168;9.848;2023-05-20T04:16:26;96949.38;;;17.85;60.43
40992;BME280;29633;49.168;9.848;2023-05-20T04:18:54;96945.09;;;17.84;60.22
40992;BME280;29633;49.168;9.848;2023-05-20T04:21:22;96932.16;;;17.83;60.29
40992;BME280;29633;49.168;9.848;2023-05-20T04:23:48;96940.84;;;17.83;60.46
40992;BME280;29633;49.168;9.848;2023-05-20T04:26:14;96936.41;;;17.84;60.40
40992;BME280;29633;49.168;9.848;2023-05-20T04:28:40;96924.94;;;17.85;60.44
40992;BME280;29633;49.168;9.848;2023-05-20T04:31:06;96931.00;;;17.85;60.40
40992;BME280;29633;49.168;9.848;2023-05-20T04:33:32;96937.91;;;17.86;60.50
40992;BME280;29633;49.168;9.848;2023-05-20T04:36:02;96934.28;;;17.87;60.45
40992;BME280;29633;49.168;9.848;2023-05-20T04:38:30;96937.56;;;17.89;60.22
40992;BME280;29633;49.168;9.848;2023-05-20T04:40:59;96926.91;;;17.91;60.47
40992;BME280;29633;49.168;9.848;2023-05-20T04:43:27;96922.66;;;17.90;60.47
40992;BME280;29633;49.168;9.848;2023-05-20T04:45:56;96921.66;;;17.91;60.37
40992;BME280;29633;49.168;9.848;2023-05-20T04:48:22;96922.31;;;17.93;60.46
40992;BME280;29633;49.168;9.848;2023-05-20T04:50:48;96920.34;;;17.95;60.41
40992;BME280;29633;49.168;9.848;2023-05-20T04:53:20;96919.22;;;17.97;60.40
40992;BME280;29633;49.168;9.848;2023-05-20T04:55:49;96917.22;;;17.99;60.62
40992;BME280;29633;49.168;9.848;2023-05-20T04:58:18;96917.06;;;18.01;60.54
40992;BME280;29633;49.168;9.848;2023-05-20T05:00:44;96911.66;;;18.02;60.48
40992;BME280;29633;49.168;9.848;2023-05-20T05:03:10;96913.94;;;18.05;60.48
40992;BME280;29633;49.168;9.848;2023-05-20T05:05:39;96916.41;;;18.07;60.75
40992;BME280;29633;49.168;9.848;2023-05-20T05:08:07;96916.75;;;18.12;60.56
40992;BME280;29633;49.168;9.848;2023-05-20T05:10:33;96918.19;;;18.14;60.70
40992;BME280;29633;49.168;9.848;2023-05-20T05:13:00;96916.06;;;18.18;60.47
40992;BME280;29633;49.168;9.848;2023-05-20T05:15:25;96921.63;;;18.23;60.48
40992;BME280;29633;49.168;9.848;2023-05-20T05:17:51;96918.69;;;18.26;60.54
40992;BME280;29633;49.168;9.848;2023-05-20T05:20:17;96922.63;;;18.30;60.52
40992;BME280;29633;49.168;9.848;2023-05-20T05:22:43;96914.41;;;18.33;60.80
40992;BME280;29633;49.168;9.848;2023-05-20T05:25:09;96915.69;;;18.37;60.58
40992;BME280;29633;49.168;9.848;2023-05-20T05:27:35;96921.25;;;18.42;60.61
40992;BME280;29633;49.168;9.848;2023-05-20T05:30:02;96912.06;;;18.46;60.40
40992;BME280;29633;49.168;9.848;2023-05-20T05:32:28;96907.16;;;18.51;60.50
40992;BME280;29633;49.168;9.848;2023-05-20T05:34:54;96905.84;;;18.55;60.56
40992;BME280;29633;49.168;9.848;2023-05-20T05:37:20;96893.97;;;18.59;60.83
40992;BME280;29633;49.168;9.848;2023-05-20T05:39:46;96895.28;;;18.63;60.65
40992;BME280;29633;49.168;9.848;2023-05-20T05:42:12;96897.25;;;18.70;60.79
40992;BME280;29633;49.168;9.848;2023-05-20T05:44:37;96887.38;;;18.72;60.83
40992;BME280;29633;49.168;9.848;2023-05-20T05:47:03;96886.69;;;18.78;60.84
40992;BME280;29633;49.168;9.848;2023-05-20T05:49:30;96902.13;;;18.81;60.97
40992;BME280;29633;49.168;9.848;2023-05-20T05:51:55;96892.09;;;18.84;60.96
40992;BME280;29633;49.168;9.848;2023-05-20T05:54:21;96906.50;;;18.88;60.96
40992;BME280;29633;49.168;9.848;2023-05-20T05:56:47;96901.56;;;18.93;60.63
40992;BME280;29633;49.168;9.848;2023-05-20T05:59:14;96897.44;;;18.99;60.92
40992;BME280;29633;49.168;9.848;2023-05-20T06:01:40;96898.38;;;19.06;61.08
40992;BME280;29633;49.168;9.848;2023-05-20T06:04:06;96894.41;;;19.10;61.12
40992;BME280;29633;49.168;9.848;2023-05-20T06:06:32;96891.09;;;19.16;60.88
40992;BME280;29633;49.168;9.848;2023-05-20T06:08:58;96894.84;;;19.22;61.11
40992;BME280;29633;49.168;9.848;2023-05-20T06:11:24;96900.19;;;19.28;60.92
40992;BME280;29633;49.168;9.848;2023-05-20T06:13:53;96893.44;;;19.34;61.00
40992;BME280;29633;49.168;9.848;2023-05-20T06:16:18;96894.53;;;19.39;60.86
40992;BME280;29633;49.168;9.848;2023-05-20T06:18:47;96893.25;;;19.43;61.11
40992;BME280;29633;49.168;9.848;2023-05-20T06:21:17;96901.25;;;19.50;61.06
40992;BME280;29633;49.168;9.848;2023-05-20T06:23:43;96897.09;;;19.55;61.05
40992;BME280;29633;49.168;9.848;2023-05-20T06:26:08;96892.78;;;19.62;61.07
40992;BME280;29633;49.168;9.848;2023-05-20T06:28:34;96892.88;;;19.69;61.09
40992;BME280;29633;49.168;9.848;2023-05-20T06:31:00;96883.47;;;19.75;61.20
40992;BME280;29633;49.168;9.848;2023-05-20T06:33:26;96887.03;;;19.82;60.93
40992;BME280;29633;49.168;9.848;2023-05-20T06:35:54;96876.78;;;19.87;61.08
40992;BME280;29633;49.168;9.848;2023-05-20T06:38:20;96879.50;;;19.93;61.35
40992;BME280;29633;49.168;9.848;2023-05-20T06:40:47;96870.56;;;20.02;61.01
40992;BME280;29633;49.168;9.848;2023-05-20T06:43:14;96868.03;;;20.09;60.94
40992;BME280;29633;49.168;9.848;2023-05-20T06:45:39;96863.88;;;20.14;61.18
40992;BME280;29633;49.168;9.848;2023-05-20T06:48:06;96867.41;;;20.22;61.18
40992;BME280;29633;49.168;9.848;2023-05-20T06:50:32;96858.66;;;20.29;60.85
40992;BME280;29633;49.168;9.848;2023-05-20T06:52:58;96859.34;;;20.38;61.16
40992;BME280;29633;49.168;9.848;2023-05-20T06:55:23;96858.81;;;20.42;61.18
40992;BME280;29633;49.168;9.848;2023-05-20T06:57:49;96849.19;;;20.49;61.15
40992;BME280;29633;49.168;9.848;2023-05-20T07:00:15;96854.34;;;20.57;60.87
40992;BME280;29633;49.168;9.848;2023-05-20T07:02:41;96862.78;;;20.68;61.23
40992;BME280;29633;49.168;9.848;2023-05-20T07:05:08;96849.69;;;20.74;60.83
40992;BME280;29633;49.168;9.848;2023-05-20T07:07:33;96859.47;;;20.80;60.99
40992;BME280;29633;49.168;9.848;2023-05-20T07:09:59;96856.31;;;20.85;60.97
40992;BME280;29633;49.168;9.848;2023-05-20T07:12:25;96854.94;;;20.89;61.04
40992;BME280;29633;49.168;9.848;2023-05-20T07:14:51;96846.28;;;20.95;61.04
40992;BME280;29633;49.168;9.848;2023-05-20T07:17:16;96847.38;;;21.00;61.35
40992;BME280;29633;49.168;9.848;2023-05-20T07:19:42;96847.25;;;21.08;60.85
40992;BME280;29633;49.168;9.848;2023-05-20T07:22:08;96851.63;;;21.16;61.35
40992;BME280;29633;49.168;9.848;2023-05-20T07:24:37;96838.13;;;21.26;61.40
40992;BME280;29633;49.168;9.848;2023-05-20T07:27:02;96844.06;;;21.34;61.02
40992;BME280;29633;49.168;9.848;2023-05-20T07:29:28;96838.31;;;21.45;60.84
40992;BME280;29633;49.168;9.848;2023-05-20T07:31:54;96846.72;;;21.55;60.96
40992;BME280;29633;49.168;9.848;2023-05-20T07:34:19;96839.47;;;21.64;60.90
40992;BME280;29633;49.168;9.848;2023-05-20T07:36:47;96845.06;;;21.76;60.91
40992;BME280;29633;49.168;9.848;2023-05-20T07:39:13;96844.72;;;21.85;61.18
40992;BME280;29633;49.168;9.848;2023-05-20T07:41:39;96838.53;;;21.93;61.04
40992;BME280;29633;49.168;9.848;2023-05-20T07:44:06;96824.38;;;22.00;61.17
40992;BME280;29633;49.168;9.848;2023-05-20T07:46:33;96820.56;;;22.10;60.85
40992;BME280;29633;49.168;9.848;2023-05-20T07:48:59;96828.75;;;22.21;60.83
40992;BME280;29633;49.168;9.848;2023-05-20T07:51:25;96824.94;;;22.30;61.18
40992;BME280;29633;49.168;9.848;2023-05-20T07:53:50;96822.16;;;22.38;61.16
40992;BME280;29633;49.168;9.848;2023-05-20T07:56:16;96823.63;;;22.47;61.10
40992;BME280;29633;49.168;9.848;2023-05-20T07:58:42;96816.53;;;22.54;60.86
40992;BME280;29633;49.168;9.848;2023-05-20T08:01:08;96817.19;;;22.63;61.18
40992;BME280;29633;49.168;9.848;2023-05-20T08:03:34;96814.19;;;22.73;61.16
40992;BME280;29633;49.168;9.848;2023-05-20T08:06:01;96821.56;;;22.84;60.78
40992;BME280;29633;49.168;9.848;2023-05-20T08:08:27;96823.22;;;22.91;60.96
40992;BME280;29633;49.168;9.848;2023-05-20T08:10:54;96821.63;;;22.97;61.00
40992;BME280;29633;49.168;9.848;2023-05-20T08:13:20;96816.53;;;23.02;61.01
40992;BME280;29633;49.168;9.848;2023-05-20T08:15:46;96811.06;;;23.10;60.93
40992;BME280;29633;49.168;9.848;2023-05-20T08:18:14;96807.84;;;23.21;60.97
40992;BME280;29633;49.168;9.848;2023-05-20T08:20:40;96814.13;;;23.27;60.98
40992;BME280;29633;49.168;9.848;2023-05-20T08:23:07;96813.53;;;23.31;60.73
40992;BME280;29633;49.168;9.848;2023-05-20T08:25:32;96807.84;;;23.34;60.74
40992;BME280;29633;49.168;9.848;2023-05-20T08:28:00;96807.44;;;23.37;60.71
40992;BME280;29633;49.168;9.848;2023-05-20T08:30:28;96812.16;;;23.48;60.68
40992;BME280;29633;49.168;9.848;2023-05-20T08:32:54;96805.44;;;23.59;60.82
40992;BME280;29633;49.168;9.848;2023-05-20T08:35:22;96805.47;;;23.66;60.79
40992;BME280;29633;49.168;9.848;2023-05-20T08:37:47;96812.34;;;23.73;60.78
40992;BME280;29633;49.168;9.848;2023-05-20T08:40:13;96812.78;;;23.83;60.46
40992;BME280;29633;49.168;9.848;2023-05-20T08:42:41;96805.84;;;23.89;60.63
40992;BME280;29633;49.168;9.848;2023-05-20T08:45:08;96804.41;;;23.93;60.67
40992;BME280;29633;49.168;9.848;2023-05-20T08:47:35;96816.81;;;23.99;60.51
40992;BME280;29633;49.168;9.848;2023-05-20T08:50:01;96815.19;;;24.05;60.44
40992;BME280;29633;49.168;9.848;2023-05-20T08:52:27;96817.44;;;24.14;60.49
40992;BME280;29633;49.168;9.848;2023-05-20T08:54:53;96814.56;;;24.22;60.28
40992;BME280;29633;49.168;9.848;2023-05-20T08:57:20;96815.38;;;24.29;60.52
40992;BME280;29633;49.168;9.848;2023-05-20T08:59:46;96814.09;;;24.38;60.14
40992;BME280;29633;49.168;9.848;2023-05-20T09:02:15;96808.16;;;24.49;60.09
40992;BME280;29633;49.168;9.848;2023-05-20T09:04:41;96817.31;;;24.54;60.10
40992;BME280;29633;49.168;9.848;2023-05-20T09:07:07;96812.66;;;24.56;60.33
40992;BME280;29633;49.168;9.848;2023-05-20T09:09:33;96823.41;;;24.61;60.10
40992;BME280;29633;49.168;9.848;2023-05-20T09:12:00;96813.00;;;24.66;60.14
40992;BME280;29633;49.168;9.848;2023-05-20T09:14:28;96809.50;;;24.72;60.19
40992;BME280;29633;49.168;9.848;2023-05-20T09:16:54;96797.41;;;24.82;59.99
40992;BME280;29633;49.168;9.848;2023-05-20T09:19:24;96804.78;;;24.87;60.07
40992;BME280;29633;49.168;9.848;2023-05-20T09:21:53;96806.81;;;24.91;60.02
40992;BME280;29633;49.168;9.848;2023-05-20T09:24:22;96809.63;;;24.96;60.10
40992;BME280;29633;49.168;9.848;2023-05-20T09:26:48;96821.22;;;25.02;59.88
40992;BME280;29633;49.168;9.848;2023-05-20T09:29:14;96816.50;;;25.04;60.01
40992;BME280;29633;49.168;9.848;2023-05-20T09:31:40;96811.22;;;25.04;60.13
40992;BME280;29633;49.168;9.848;2023-05-20T09:34:05;96818.34;;;25.10;59.73
40992;BME280;29633;49.168;9.848;2023-05-20T09:36:34;96809.50;;;25.16;59.93
40992;BME280;29633;49.168;9.848;2023-05-20T09:39:01;96820.09;;;25.23;59.98
40992;BME280;29633;49.168;9.848;2023-05-20T09:41:41;96809.59;;;25.34;59.80
40992;BME280;29633;49.168;9.848;2023-05-20T09:44:10;96804.63;;;25.44;59.83
40992;BME280;29633;49.168;9.848;2023-05-20T09:46:37;96804.97;;;25.55;59.85
40992;BME280;29633;49.168;9.848;2023-05-20T09:49:04;96808.41;;;25.62;59.79
40992;BME280;29633;49.168;9.848;2023-05-20T09:51:32;96801.19;;;25.69;59.69
40992;BME280;29633;49.168;9.848;2023-05-20T09:53:59;96802.56;;;25.78;59.63
40992;BME280;29633;49.168;9.848;2023-05-20T09:56:24;96802.88;;;25.88;59.68
40992;BME280;29633;49.168;9.848;2023-05-20T09:58:52;96804.66;;;25.94;59.60
40992;BME280;29633;49.168;9.848;2023-05-20T10:01:23;96797.88;;;25.98;59.55
40992;BME280;29633;49.168;9.848;2023-05-20T10:03:50;96790.50;;;26.00;59.69
40992;BME280;29633;49.168;9.848;2023-05-20T10:09:20;96791.25;;;26.07;59.41
40992;BME280;29633;49.168;9.848;2023-05-20T10:12:23;96789.78;;;26.11;59.32
40992;BME280;29633;49.168;9.848;2023-05-20T10:15:16;96775.22;;;26.14;59.50
40992;BME280;29633;49.168;9.848;2023-05-20T10:20:24;96762.94;;;26.19;59.31
40992;BME280;29633;49.168;9.848;2023-05-20T10:22:54;96763.66;;;26.26;59.49
40992;BME280;29633;49.168;9.848;2023-05-20T10:25:26;96770.16;;;26.30;59.22
40992;BME280;29633;49.168;9.848;2023-05-20T10:28:08;96761.91;;;26.38;59.25
40992;BME280;29633;49.168;9.848;2023-05-20T10:30:34;96765.09;;;26.47;59.32
40992;BME280;29633;49.168;9.848;2023-05-20T10:33:03;96765.34;;;26.57;59.19
40992;BME280;29633;49.168;9.848;2023-05-20T10:35:29;96765.28;;;26.64;59.10
40992;BME280;29633;49.168;9.848;2023-05-20T10:38:10;96760.09;;;26.69;58.99
40992;BME280;29633;49.168;9.848;2023-05-20T10:40:36;96767.16;;;26.75;59.17
40992;BME280;29633;49.168;9.848;2023-05-20T10:43:12;96756.91;;;26.78;58.98
40992;BME280;29633;49.168;9.848;2023-05-20T10:48:30;96750.84;;;26.89;58.59
40992;BME280;29633;49.168;9.848;2023-05-20T10:50:57;96757.09;;;26.95;58.85
40992;BME280;29633;49.168;9.848;2023-05-20T10:53:25;96757.69;;;26.97;58.92
40992;BME280;29633;49.168;9.848;2023-05-20T10:55:52;96756.66;;;26.98;58.82
40992;BME280;29633;49.168;9.848;2023-05-20T10:58:23;96758.25;;;26.99;58.94
40992;BME280;29633;49.168;9.848;2023-05-20T11:00:52;96748.22;;;27.01;58.72
40992;BME280;29633;49.168;9.848;2023-05-20T11:03:20;96740.25;;;27.01;58.70
40992;BME280;29633;49.168;9.848;2023-05-20T11:05:46;96746.13;;;27.03;58.87
40992;BME280;29633;49.168;9.848;2023-05-20T11:08:12;96749.16;;;27.07;58.79
40992;BME280;29633;49.168;9.848;2023-05-20T11:10:38;96746.03;;;27.10;58.85
40992;BME280;29633;49.168;9.848;2023-05-20T11:13:04;96739.56;;;27.17;58.50
40992;BME280;29633;49.168;9.848;2023-05-20T11:15:30;96732.09;;;27.26;58.47
40992;BME280;29633;49.168;9.848;2023-05-20T11:18:00;96739.97;;;27.32;58.60
40992;BME280;29633;49.168;9.848;2023-05-20T11:20:26;96727.94;;;27.42;58.56
40992;BME280;29633;49.168;9.848;2023-05-20T11:22:53;96716.97;;;27.50;58.57
40992;BME280;29633;49.168;9.848;2023-05-20T11:25:19;96717.09;;;27.55;58.28
40992;BME280;29633;49.168;9.848;2023-05-20T11:27:48;96714.22;;;27.56;58.37
40992;BME280;29633;49.168;9.848;2023-05-20T11:30:14;96709.22;;;27.60;58.46
40992;BME280;29633;49.168;9.848;2023-05-20T11:32:55;96714.19;;;27.68;58.68
40992;BME280;29633;49.168;9.848;2023-05-20T11:35:25;96714.31;;;27.73;58.34
40992;BME280;29633;49.168;9.848;2023-05-20T11:37:55;96715.81;;;27.80;58.35
40992;BME280;29633;49.168;9.848;2023-05-20T11:40:25;96713.03;;;27.87;58.16
40992;BME280;29633;49.168;9.848;2023-05-20T11:42:55;96705.72;;;27.94;58.11
40992;BME280;29633;49.168;9.848;2023-05-20T11:45:22;96703.19;;;27.99;58.23
40992;BME280;29633;49.168;9.848;2023-05-20T11:47:58;96703.50;;;28.03;58.09
40992;BME280;29633;49.168;9.848;2023-05-20T11:50:23;96703.41;;;28.09;58.05
40992;BME280;29633;49.168;9.848;2023-05-20T11:52:59;96695.28;;;28.16;57.94
40992;BME280;29633;49.168;9.848;2023-05-20T11:55:26;96694.66;;;28.25;58.15
40992;BME280;29633;49.168;9.848;2023-05-20T11:57:53;96694.22;;;28.28;58.11
40992;BME280;29633;49.168;9.848;2023-05-20T12:00:19;96693.88;;;28.25;58.14
40992;BME280;29633;49.168;9.848;2023-05-20T12:02:46;96698.97;;;28.26;58.14
40992;BME280;29633;49.168;9.848;2023-05-20T12:05:11;96693.41;;;28.28;57.70
40992;BME280;29633;49.168;9.848;2023-05-20T12:07:38;96689.44;;;28.30;57.67
40992;BME280;29633;49.168;9.848;2023-05-20T12:10:04;96688.88;;;28.28;57.44
40992;BME280;29633;49.168;9.848;2023-05-20T12:12:30;96681.94;;;28.27;57.86
40992;BME280;29633;49.168;9.848;2023-05-20T12:14:56;96684.59;;;28.27;57.62
40992;BME280;29633;49.168;9.848;2023-05-20T12:17:21;96681.13;;;28.27;57.50
40992;BME280;29633;49.168;9.848;2023-05-20T12:19:47;96678.44;;;28.27;57.45
40992;BME280;29633;49.168;9.848;2023-05-20T12:22:12;96676.00;;;28.25;57.54
40992;BME280;29633;49.168;9.848;2023-05-20T12:24:38;96677.28;;;28.23;57.56
40992;BME280;29633;49.168;9.848;2023-05-20T12:27:04;96675.66;;;28.22;57.77
40992;BME280;29633;49.168;9.848;2023-05-20T12:29:31;96677.56;;;28.21;57.38
40992;BME280;29633;49.168;9.848;2023-05-20T12:31:57;96670.59;;;28.20;57.48
40992;BME280;29633;49.168;9.848;2023-05-20T12:34:22;96674.06;;;28.21;57.07
40992;BME280;29633;49.168;9.848;2023-05-20T12:36:48;96672.09;;;28.16;57.20
40992;BME280;29633;49.168;9.848;2023-05-20T12:39:14;96673.47;;;28.19;57.26
40992;BME280;29633;49.168;9.848;2023-05-20T12:41:42;96668.47;;;28.22;56.74
40992;BME280;29633;49.168;9.848;2023-05-20T12:44:07;96668.47;;;28.22;56.88
40992;BME280;29633;49.168;9.848;2023-05-20T12:46:34;96662.44;;;28.27;56.99
40992;BME280;29633;49.168;9.848;2023-05-20T12:49:00;96667.91;;;28.32;56.99
40992;BME280;29633;49.168;9.848;2023-05-20T12:51:26;96666.81;;;28.33;56.89
40992;BME280;29633;49.168;9.848;2023-05-20T12:53:51;96667.16;;;28.36;57.12
40992;BME280;29633;49.168;9.848;2023-05-20T12:56:17;96667.50;;;28.40;56.84
40992;BME280;29633;49.168;9.848;2023-05-20T12:58:43;96661.44;;;28.45;56.86
40992;BME280;29633;49.168;9.848;2023-05-20T13:01:09;96663.31;;;28.44;56.97
40992;BME280;29633;49.168;9.848;2023-05-20T13:03:35;96663.09;;;28.46;56.89
40992;BME280;29633;49.168;9.848;2023-05-20T13:06:01;96666.31;;;28.48;56.57